Auburn, ME

2:30 AM EST on January 31, 2015 (GMT -0500)
Riverside | Change Station
CLOSE
Current Station
Personal Weather Station
Location: Lewiston, ME
Elevation: 217 ft
Nearby Weather Stations
Active Advisory: Winter Storm Warning Active Notice: Public Information Statement

Elev 217 ft 44.11 °N, 70.21 °W | Updated 2 seconds ago

Snow
Snow
13.2 °F
Feels Like 13 °F
N
0.0
Wind Variable Wind from SW
Gusts 2.0 mph

Today
High -- | Low -- °F
--% Chance of Precip.
Yesterday
High -- | Low -- °F
Precip. -- in
6:59 AM 4:49 PM
Waxing Gibbous, 88% visible
Pressure 29.69 in
Visibility 3.0 miles
Clouds Overcast 2000 ft
Windchill 13 °F
Dew Point 10 °F
Humidity 88%
Rainfall 0.00 in
Snow Depth Not available.
UV 0 out of 12
Pollen .10 out of 12
Air Quality Not available.
Flu Activity Not available.
METAR KLEW 310715Z AUTO 34014G22KT 3SM OVC020 M09/M13 A2969 RMK AO1

More Conditions Fewer Conditions

Pressure 29.69 in
Visibility 3.0 miles
Clouds Overcast 2000 ft
Windchill 13 °F
Dew Point 10 °F
Humidity 88%
Rainfall 0.00 in
Snow Depth Not available.
UV 0 out of 12
Pollen .10 out of 12
Air Quality Not available.
Flu Activity Not available.
METAR KLEW 310715Z AUTO 34014G22KT 3SM OVC020 M09/M13 A2969 RMK AO1

More Conditions Fewer Conditions

10-Day Weather Forecast

Almanac

Astronomy

Jan. 31, 2015 Rise Set
Actual Time
Civil Twilight
Nautical Twilight
Astronomical Twilight
Moon
Length of Visible Light
Length of Day
Tomorrow will be .
, % of the Moon is Illuminated

Today's Extremes

State Highs State Lows

Community

WunderPhotos

Upload Photos

1,792,014 photos uploaded!

WunderBlogs® & News

Nearby

Air Quality

  Air Quality AQ Index Pollutant
Not available.

Snow Depth

Station Depth Elevation

Earthquake Activity

City Distance Mag. Time & Date
Minimum magnitude displayed is 2.5.

Coastal Water Temperatures

Place Temperature

Nearby Weather Stations